createdAt,value
2023-04-27T00:02:46.276Z,10.94
2023-04-27T00:08:08.045Z,10.93
2023-04-27T00:13:30.051Z,10.92
2023-04-27T00:18:52.054Z,10.93
2023-04-27T00:24:14.015Z,10.88
2023-04-27T00:29:36.039Z,10.86
2023-04-27T00:34:58.023Z,10.85
2023-04-27T00:40:20.080Z,10.85
2023-04-27T00:45:42.046Z,10.85
2023-04-27T00:51:04.042Z,10.85
2023-04-27T00:56:26.019Z,10.83
2023-04-27T01:01:48.109Z,10.82
2023-04-27T01:07:17.040Z,10.79
2023-04-27T01:12:39.036Z,10.73
2023-04-27T01:18:01.064Z,10.70
2023-04-27T01:23:23.013Z,10.70
2023-04-27T01:28:45.049Z,10.69
2023-04-27T01:34:08.039Z,10.67
2023-04-27T01:39:30.007Z,10.62
2023-04-27T01:44:52.008Z,10.60
2023-04-27T01:50:14.019Z,10.60
2023-04-27T01:55:42.998Z,10.60
2023-04-27T02:01:05.010Z,10.62
2023-04-27T02:06:27.006Z,10.61
2023-04-27T02:11:49.006Z,10.61
2023-04-27T02:17:11.022Z,10.60
2023-04-27T02:22:34.024Z,10.58
2023-04-27T02:27:56.002Z,10.54
2023-04-27T02:33:18.014Z,10.52
2023-04-27T02:38:40.010Z,10.49
2023-04-27T02:44:02.016Z,10.47
2023-04-27T02:49:24.007Z,10.45
2023-04-27T02:54:45.978Z,10.43
2023-04-27T03:00:07.995Z,10.40
2023-04-27T03:05:39.994Z,10.37
2023-04-27T03:11:01.985Z,10.33
2023-04-27T03:16:25.006Z,10.29
2023-04-27T03:21:47.006Z,10.23
2023-04-27T03:27:09.974Z,10.19
2023-04-27T03:32:32.019Z,10.13
2023-04-27T03:37:53.972Z,10.06
2023-04-27T03:43:15.980Z,10.01
2023-04-27T03:48:37.998Z,9.96
2023-04-27T03:53:59.973Z,9.90
2023-04-27T03:59:21.961Z,9.84
2023-04-27T04:04:44.125Z,9.81
2023-04-27T04:10:06.015Z,9.77
2023-04-27T04:15:35.034Z,9.76
2023-04-27T04:20:57.003Z,9.75
2023-04-27T04:26:19.961Z,9.77
2023-04-27T04:31:42.044Z,9.76
2023-04-27T04:37:06.964Z,9.77
2023-04-27T04:42:28.967Z,9.77
2023-04-27T04:47:51.026Z,9.75
2023-04-27T04:53:12.968Z,9.76
2023-04-27T04:58:34.974Z,9.77
2023-04-27T05:03:58.108Z,9.78
2023-04-27T05:09:19.936Z,9.80
2023-04-27T05:14:41.945Z,9.83
2023-04-27T05:20:03.963Z,9.86
2023-04-27T05:25:25.965Z,9.92
2023-04-27T05:30:47.946Z,9.97
2023-04-27T05:36:09.940Z,10.02
2023-04-27T05:41:31.939Z,10.07
2023-04-27T05:46:53.943Z,10.15
2023-04-27T05:52:15.952Z,10.20
2023-04-27T05:57:37.951Z,10.26
2023-04-27T06:03:00.050Z,10.33
2023-04-27T06:08:21.952Z,10.39
2023-04-27T06:13:44.936Z,10.47
2023-04-27T06:19:07.044Z,10.53
2023-04-27T06:24:28.967Z,10.60
2023-04-27T06:29:50.968Z,10.68
2023-04-27T06:35:12.926Z,10.77
2023-04-27T06:40:34.998Z,10.88
2023-04-27T06:45:56.976Z,10.97
2023-04-27T06:51:18.948Z,11.08
2023-04-27T06:56:40.923Z,11.19
2023-04-27T07:02:02.973Z,11.27
2023-04-27T07:07:31.961Z,11.30
2023-04-27T07:12:53.937Z,11.35
2023-04-27T07:18:15.968Z,11.46
2023-04-27T07:23:37.954Z,11.56
2023-04-27T07:29:00.320Z,11.66
2023-04-27T07:34:22.950Z,11.82
2023-04-27T07:39:44.930Z,11.93
2023-04-27T07:45:07.949Z,12.04
2023-04-27T07:50:31.966Z,12.18
2023-04-27T07:55:53.955Z,12.34
2023-04-27T08:01:15.910Z,12.46
2023-04-27T08:06:38.332Z,12.61
2023-04-27T08:12:00.904Z,12.75
2023-04-27T08:17:24.890Z,12.88
2023-04-27T08:22:46.896Z,12.95
2023-04-27T08:28:08.903Z,13.07
2023-04-27T08:33:30.888Z,13.18
2023-04-27T08:38:52.899Z,13.29
2023-04-27T08:44:14.902Z,13.42
2023-04-27T08:49:36.880Z,13.56
2023-04-27T08:54:58.901Z,13.66
2023-04-27T09:00:21.992Z,13.81
2023-04-27T09:05:52.713Z,13.94
2023-04-27T09:11:42.892Z,14.12
2023-04-27T09:17:11.882Z,14.23
2023-04-27T09:22:33.890Z,14.25
2023-04-27T09:27:58.029Z,14.24
2023-04-27T09:33:19.905Z,14.28
2023-04-27T09:38:42.869Z,14.38
2023-04-27T09:44:04.863Z,14.57
2023-04-27T09:49:27.880Z,14.76
2023-04-27T09:54:49.880Z,14.93
2023-04-27T10:00:47.931Z,15.02
2023-04-27T10:06:39.881Z,15.16
2023-04-27T10:12:01.881Z,15.26
2023-04-27T10:17:23.875Z,15.30
2023-04-27T10:22:54.877Z,15.43
2023-04-27T10:28:17.865Z,15.55
2023-04-27T10:33:49.877Z,15.69
2023-04-27T10:39:12.044Z,15.92
2023-04-27T10:44:34.881Z,16.17
2023-04-27T10:49:56.859Z,16.42
2023-04-27T10:55:22.862Z,16.60
2023-04-27T11:00:54.853Z,16.66
2023-04-27T11:06:16.959Z,16.70
2023-04-27T11:11:39.891Z,16.68
2023-04-27T11:17:01.943Z,16.61
2023-04-27T11:22:23.900Z,16.60
2023-04-27T11:27:46.880Z,16.54
2023-04-27T11:33:08.966Z,16.61
2023-04-27T11:38:30.940Z,16.84
2023-04-27T11:43:56.893Z,16.98
2023-04-27T11:49:18.892Z,17.09
2023-04-27T11:54:43.874Z,17.23
2023-04-27T12:00:07.876Z,17.28
2023-04-27T12:05:30.133Z,17.50
2023-04-27T12:10:51.879Z,17.76
2023-04-27T12:16:13.940Z,17.81
2023-04-27T12:21:35.886Z,17.80
2023-04-27T12:26:57.881Z,17.80
2023-04-27T12:32:19.857Z,17.66
2023-04-27T12:37:41.869Z,17.70
2023-04-27T12:43:03.878Z,17.77
2023-04-27T12:48:25.889Z,17.86
2023-04-27T12:53:47.859Z,18.01
2023-04-27T12:59:09.868Z,17.96
2023-04-27T13:04:32.050Z,18.03
2023-04-27T13:09:53.872Z,18.04
2023-04-27T13:15:15.871Z,18.11
2023-04-27T13:20:37.934Z,18.14
2023-04-27T13:25:59.836Z,18.22
2023-04-27T13:31:21.865Z,18.33
2023-04-27T13:36:43.859Z,18.34
2023-04-27T13:42:05.853Z,18.34
2023-04-27T13:47:27.981Z,18.39
2023-04-27T13:52:50.883Z,18.52
2023-04-27T13:58:13.100Z,18.61
2023-04-27T14:03:34.963Z,18.77
2023-04-27T14:09:03.885Z,18.95
2023-04-27T14:14:25.834Z,19.19
2023-04-27T14:19:47.859Z,19.16
2023-04-27T14:25:09.862Z,19.20
2023-04-27T14:30:31.849Z,19.24
2023-04-27T14:35:53.857Z,19.41
2023-04-27T14:41:15.850Z,19.43
2023-04-27T14:46:37.897Z,19.43
2023-04-27T14:51:59.848Z,19.46
2023-04-27T14:57:21.840Z,19.49
2023-04-27T15:02:43.901Z,19.56
2023-04-27T15:08:05.845Z,19.63
2023-04-27T15:13:27.871Z,19.82
2023-04-27T15:18:49.875Z,20.00
2023-04-27T15:24:11.873Z,20.11
2023-04-27T15:29:33.835Z,20.20
2023-04-27T15:34:56.833Z,20.29
2023-04-27T15:40:18.835Z,20.26
2023-04-27T15:45:41.874Z,20.20
2023-04-27T15:51:03.839Z,20.18
2023-04-27T15:56:25.894Z,20.16
2023-04-27T16:01:47.841Z,20.18
2023-04-27T16:07:09.833Z,20.18
2023-04-27T16:12:31.810Z,20.08
2023-04-27T16:17:53.880Z,20.01
2023-04-27T16:23:15.830Z,19.92
2023-04-27T16:28:38.808Z,19.83
2023-04-27T16:34:00.807Z,19.79
2023-04-27T16:39:22.820Z,19.77
2023-04-27T16:44:44.824Z,19.76
2023-04-27T16:50:06.812Z,19.75
2023-04-27T16:55:28.819Z,19.76
2023-04-27T17:00:50.829Z,19.76
2023-04-27T17:06:12.812Z,19.76
2023-04-27T17:11:34.805Z,19.77
2023-04-27T17:16:56.808Z,19.80
2023-04-27T17:22:19.821Z,19.82
2023-04-27T17:27:41.820Z,19.89
2023-04-27T17:33:03.864Z,19.90
2023-04-27T17:38:25.835Z,19.84
2023-04-27T17:43:47.867Z,19.76
2023-04-27T17:49:09.806Z,19.66
2023-04-27T17:54:31.822Z,19.55
2023-04-27T17:59:53.819Z,19.45
2023-04-27T18:05:15.811Z,19.33
2023-04-27T18:10:37.808Z,19.21
2023-04-27T18:15:59.841Z,19.10
2023-04-27T18:21:21.816Z,18.98
2023-04-27T18:26:43.821Z,18.84
2023-04-27T18:32:07.852Z,18.70
2023-04-27T18:37:29.806Z,18.57
2023-04-27T18:42:51.817Z,18.43
2023-04-27T18:48:13.827Z,18.28
2023-04-27T18:53:35.824Z,18.13
2023-04-27T18:58:57.828Z,18.01
2023-04-27T19:04:19.917Z,17.87
2023-04-27T19:09:41.806Z,17.75
2023-04-27T19:15:03.835Z,17.67
2023-04-27T19:20:25.798Z,17.57
2023-04-27T19:25:47.818Z,17.48
2023-04-27T19:31:09.911Z,17.39
2023-04-27T19:36:32.791Z,17.28
2023-04-27T19:41:54.795Z,17.19
2023-04-27T19:47:19.797Z,17.08
2023-04-27T19:52:41.799Z,16.94
2023-04-27T19:58:03.815Z,16.83
2023-04-27T20:03:25.966Z,16.75
2023-04-27T20:08:54.779Z,16.66
2023-04-27T20:14:17.125Z,16.54
2023-04-27T20:19:38.791Z,16.47
2023-04-27T20:25:00.788Z,16.39
2023-04-27T20:30:22.794Z,16.32
2023-04-27T20:35:44.777Z,16.25
2023-04-27T20:41:07.778Z,16.16
2023-04-27T20:46:29.777Z,16.09
2023-04-27T20:51:51.790Z,16.03
2023-04-27T20:57:19.802Z,15.96
2023-04-27T21:02:41.875Z,15.91
2023-04-27T21:08:03.765Z,15.84
2023-04-27T21:13:40.764Z,15.77
2023-04-27T21:19:02.790Z,15.71
2023-04-27T21:24:25.791Z,15.66
2023-04-27T21:29:47.856Z,15.59
2023-04-27T21:35:09.794Z,15.54
2023-04-27T21:40:31.784Z,15.48
2023-04-27T21:45:53.785Z,15.41
2023-04-27T21:51:15.854Z,15.34
2023-04-27T21:56:37.782Z,15.26
2023-04-27T22:01:59.892Z,15.17
2023-04-27T22:07:21.753Z,15.13
2023-04-27T22:12:43.752Z,15.09
2023-04-27T22:18:05.877Z,15.03
2023-04-27T22:23:27.779Z,14.98
2023-04-27T22:28:49.763Z,14.93
2023-04-27T22:34:11.806Z,14.89
2023-04-27T22:39:33.756Z,14.84
2023-04-27T22:44:55.752Z,14.80
2023-04-27T22:50:17.756Z,14.76
2023-04-27T22:55:39.766Z,14.71
2023-04-27T23:01:01.786Z,14.67
2023-04-27T23:06:23.764Z,14.62
2023-04-27T23:11:46.741Z,14.57
2023-04-27T23:17:08.777Z,14.53
2023-04-27T23:22:30.737Z,14.52
2023-04-27T23:27:53.006Z,14.51
2023-04-27T23:33:14.759Z,14.49
2023-04-27T23:38:36.766Z,14.47
2023-04-27T23:43:58.728Z,14.45
2023-04-27T23:49:20.741Z,14.42
2023-04-27T23:54:45.744Z,14.39
